Time;durP1;ratioP1;P1;durP2;ratioP2;P2;SDS_P1;SDS_P2;PMS_P1;PMS_P2;Temp;Humidity;BMP_temperature;BMP_pressure;BME280_temperature;BME280_humidity;BME280_pressure;Samples;Min_cycle;Max_cycle;Signal;HPM_P1;HPM_P2
2021/07/03 00:00:41;;;;;;;34.97;29.25;;;18.30;80.60;;;;;;5013655;28;20400;-76
2021/07/03 00:03:07;;;;;;;33.10;27.60;;;18.20;80.80;;;;;;5034256;28;20499;-78
2021/07/03 00:05:33;;;;;;;33.80;28.67;;;18.20;80.90;;;;;;5048864;28;20029;-74
2021/07/03 00:07:58;;;;;;;33.05;28.73;;;18.20;80.90;;;;;;5050192;28;20558;-74
2021/07/03 00:10:24;;;;;;;33.72;28.30;;;18.10;81.00;;;;;;5027645;28;20445;-74
2021/07/03 00:12:50;;;;;;;30.90;27.08;;;18.10;81.20;;;;;;5025136;28;20040;-75
2021/07/03 00:15:21;;;;;;;32.33;27.88;;;18.10;81.00;;;;;;5029572;28;20120;-75
2021/07/03 00:17:51;;;;;;;33.78;28.45;;;18.10;81.00;;;;;;5028473;28;20026;-76
2021/07/03 00:20:17;;;;;;;30.55;27.35;;;18.10;80.90;;;;;;5018499;28;20107;-75
2021/07/03 00:22:43;;;;;;;31.13;27.40;;;18.20;81.00;;;;;;5028659;28;20029;-78
2021/07/03 00:25:09;;;;;;;31.67;27.95;;;18.20;80.90;;;;;;5027977;28;20091;-75
2021/07/03 00:27:35;;;;;;;35.80;30.30;;;18.20;80.80;;;;;;5027951;28;20124;-75
2021/07/03 00:30:01;;;;;;;31.42;27.95;;;18.10;80.90;;;;;;5029147;28;20136;-77
2021/07/03 00:32:27;;;;;;;33.95;29.88;;;18.10;80.90;;;;;;5016986;28;20034;-75
2021/07/03 00:34:52;;;;;;;33.63;27.50;;;18.10;81.00;;;;;;5010083;28;20030;-76
2021/07/03 00:37:18;;;;;;;33.72;28.85;;;18.20;80.90;;;;;;5009480;28;20397;-74
2021/07/03 00:39:43;;;;;;;31.80;27.58;;;18.20;80.80;;;;;;5010126;28;20108;-76
2021/07/03 00:42:09;;;;;;;33.25;28.70;;;18.20;80.80;;;;;;5009247;28;20088;-77
2021/07/03 00:44:36;;;;;;;33.50;27.65;;;18.20;80.50;;;;;;5026063;28;20117;-75
2021/07/03 00:47:04;;;;;;;32.72;28.40;;;18.10;80.70;;;;;;5022611;28;20045;-74
2021/07/03 00:49:30;;;;;;;33.90;28.90;;;18.10;80.50;;;;;;5025718;28;20034;-75
2021/07/03 00:51:56;;;;;;;30.70;26.42;;;18.10;80.60;;;;;;5019677;28;20038;-75
2021/07/03 00:54:22;;;;;;;36.70;28.20;;;18.10;80.70;;;;;;5020991;28;20439;-75
2021/07/03 00:57:01;;;;;;;34.83;29.95;;;18.10;80.80;;;;;;5029245;28;20037;-77
2021/07/03 00:59:38;;;;;;;33.13;28.33;;;18.00;80.70;;;;;;5031257;28;20029;-74
2021/07/03 01:02:05;;;;;;;32.25;28.10;;;18.10;81.00;;;;;;5031030;28;20041;-76
2021/07/03 01:04:31;;;;;;;33.20;26.90;;;18.10;80.90;;;;;;5041188;28;20025;-75
2021/07/03 01:06:57;;;;;;;32.15;26.75;;;18.00;81.00;;;;;;5011951;28;20037;-79
2021/07/03 01:09:23;;;;;;;29.63;25.85;;;18.10;80.80;;;;;;5011539;28;20157;-75
2021/07/03 01:11:50;;;;;;;31.77;27.73;;;18.00;80.80;;;;;;5011658;28;20053;-74
2021/07/03 01:14:17;;;;;;;29.33;25.27;;;18.10;80.70;;;;;;5011614;28;20037;-75
2021/07/03 01:16:43;;;;;;;29.60;25.05;;;18.10;80.70;;;;;;5025422;28;20467;-74
2021/07/03 01:19:09;;;;;;;31.35;25.85;;;18.10;80.50;;;;;;5031311;28;20077;-76
2021/07/03 01:21:35;;;;;;;29.17;26.00;;;18.10;80.30;;;;;;5030356;28;20061;-76
2021/07/03 01:24:01;;;;;;;31.83;27.08;;;18.10;80.20;;;;;;5026779;28;20495;-77
2021/07/03 01:26:26;;;;;;;29.65;26.50;;;18.10;80.10;;;;;;5031776;28;20045;-78
2021/07/03 01:28:52;;;;;;;29.67;26.00;;;18.10;80.20;;;;;;5032803;28;20041;-74
2021/07/03 01:31:18;;;;;;;30.50;26.25;;;18.10;80.10;;;;;;5026381;28;20073;-75
2021/07/03 01:33:44;;;;;;;28.23;24.08;;;18.10;80.30;;;;;;5013027;28;20030;-74
2021/07/03 01:36:10;;;;;;;27.48;24.58;;;18.10;80.30;;;;;;5012059;28;20034;-76
2021/07/03 01:38:35;;;;;;;29.15;24.63;;;18.20;80.30;;;;;;5024778;28;20112;-75
2021/07/03 01:41:02;;;;;;;27.30;24.15;;;18.10;80.20;;;;;;5025734;28;20076;-75
2021/07/03 01:43:29;;;;;;;26.55;23.75;;;18.10;80.10;;;;;;5019477;28;20029;-75
2021/07/03 01:45:56;;;;;;;27.20;23.35;;;18.20;79.90;;;;;;5030765;28;20580;-77
2021/07/03 01:48:32;;;;;;;27.20;24.05;;;18.20;79.60;;;;;;5031212;28;20041;-76
2021/07/03 01:50:59;;;;;;;26.77;23.98;;;18.20;79.70;;;;;;5016633;28;20445;-76
2021/07/03 01:53:26;;;;;;;28.17;23.77;;;18.10;79.70;;;;;;5022996;28;20090;-76
2021/07/03 01:55:52;;;;;;;28.33;25.35;;;18.10;79.70;;;;;;5032260;28;20071;-76
2021/07/03 01:58:20;;;;;;;24.77;22.08;;;18.10;79.70;;;;;;5031627;28;20029;-76
2021/07/03 02:00:48;;;;;;;28.98;25.52;;;18.10;79.80;;;;;;5023734;28;20033;-76
2021/07/03 02:03:13;;;;;;;27.38;24.38;;;18.20;79.60;;;;;;5035302;28;20086;-77
2021/07/03 02:05:39;;;;;;;24.80;22.13;;;18.10;79.70;;;;;;5046322;28;20514;-75
2021/07/03 02:08:05;;;;;;;26.90;24.10;;;18.20;79.60;;;;;;5031360;28;20519;-76
2021/07/03 02:10:31;;;;;;;25.40;22.58;;;18.20;79.60;;;;;;5027447;28;20597;-77
2021/07/03 02:12:56;;;;;;;27.73;24.02;;;18.30;79.50;;;;;;5018956;28;20109;-75
2021/07/03 02:15:22;;;;;;;29.02;24.05;;;18.30;79.60;;;;;;5031371;28;20489;-76
2021/07/03 02:17:48;;;;;;;27.95;23.42;;;18.40;79.70;;;;;;5030071;28;20037;-80
2021/07/03 02:20:14;;;;;;;26.83;23.88;;;18.40;79.90;;;;;;5020257;28;20050;-76
2021/07/03 02:22:39;;;;;;;26.60;23.55;;;18.40;79.90;;;;;;5029690;28;20052;-76
2021/07/03 02:25:06;;;;;;;28.23;24.08;;;18.50;80.20;;;;;;5050193;28;20048;-76
2021/07/03 02:27:32;;;;;;;26.52;23.73;;;18.40;80.10;;;;;;5025134;28;20496;-75
2021/07/03 02:29:59;;;;;;;26.52;23.63;;;18.40;79.90;;;;;;5035083;28;20026;-75
2021/07/03 02:32:25;;;;;;;27.27;24.38;;;18.50;80.10;;;;;;5033116;28;20831;-76
2021/07/03 02:34:51;;;;;;;25.90;23.10;;;18.50;80.10;;;;;;5031650;28;20468;-76
2021/07/03 02:37:17;;;;;;;25.92;23.13;;;18.50;79.90;;;;;;5016468;28;20049;-77
2021/07/03 02:39:43;;;;;;;27.65;23.80;;;18.50;79.90;;;;;;5010574;28;20451;-75
2021/07/03 02:42:08;;;;;;;25.23;22.35;;;18.50;79.80;;;;;;5010967;28;20060;-75
2021/07/03 02:44:34;;;;;;;25.27;22.52;;;18.50;79.50;;;;;;5010195;28;20032;-76
2021/07/03 02:47:00;;;;;;;26.30;22.20;;;18.50;79.30;;;;;;5027170;28;20464;-76
2021/07/03 02:49:26;;;;;;;23.65;20.75;;;18.50;79.10;;;;;;5026138;28;20034;-77
2021/07/03 02:51:51;;;;;;;23.15;20.55;;;18.50;78.70;;;;;;5009938;28;20025;-76
2021/07/03 02:54:17;;;;;;;27.30;21.80;;;18.50;78.60;;;;;;5028391;28;20061;-76
2021/07/03 02:56:43;;;;;;;25.38;22.23;;;18.50;78.60;;;;;;5029140;28;20039;-76
2021/07/03 02:59:09;;;;;;;23.30;20.55;;;18.50;78.50;;;;;;5030342;28;20137;-76
2021/07/03 03:01:34;;;;;;;24.75;20.60;;;18.60;78.50;;;;;;5027628;28;20036;-76
2021/07/03 03:04:00;;;;;;;23.42;19.92;;;18.60;78.40;;;;;;5036950;28;20535;-75
2021/07/03 03:06:26;;;;;;;22.20;19.75;;;18.60;78.60;;;;;;5028356;28;20022;-76
2021/07/03 03:08:52;;;;;;;24.58;19.80;;;18.60;78.80;;;;;;5011070;28;20037;-77
2021/07/03 03:11:17;;;;;;;25.60;21.75;;;18.60;78.90;;;;;;5009551;28;20034;-76
2021/07/03 03:13:43;;;;;;;25.15;20.75;;;18.60;78.90;;;;;;5023975;28;20029;-77
2021/07/03 03:16:09;;;;;;;23.27;20.77;;;18.50;78.80;;;;;;5028136;28;20124;-78
2021/07/03 03:18:35;;;;;;;24.45;21.25;;;18.50;78.90;;;;;;5013453;28;20039;-74
2021/07/03 03:21:01;;;;;;;26.20;22.48;;;18.50;79.10;;;;;;5013476;28;20125;-75
2021/07/03 03:23:27;;;;;;;24.08;20.77;;;18.50;79.20;;;;;;5025612;28;20434;-75
2021/07/03 03:25:53;;;;;;;26.13;21.50;;;18.40;79.40;;;;;;5050458;28;20525;-76
2021/07/03 03:28:19;;;;;;;25.38;21.45;;;18.40;79.50;;;;;;5029526;28;20038;-74
2021/07/03 03:30:45;;;;;;;24.75;20.98;;;18.40;79.50;;;;;;5016801;28;20043;-76
2021/07/03 03:33:10;;;;;;;23.80;21.20;;;18.40;79.60;;;;;;5029607;28;20120;-75
2021/07/03 03:35:37;;;;;;;24.60;20.15;;;18.50;79.50;;;;;;5029458;28;20034;-75
2021/07/03 03:38:02;;;;;;;23.35;20.38;;;18.40;79.60;;;;;;5028237;28;20052;-75
2021/07/03 03:40:28;;;;;;;21.83;19.52;;;18.40;79.70;;;;;;5029890;28;20025;-74
2021/07/03 03:42:55;;;;;;;27.50;21.05;;;18.50;79.80;;;;;;5025611;28;20350;-75
2021/07/03 03:45:21;;;;;;;22.73;20.20;;;18.50;79.80;;;;;;5011371;28;20042;-77
2021/07/03 03:47:47;;;;;;;23.33;20.02;;;18.50;79.50;;;;;;5030193;28;20396;-76
2021/07/03 03:50:13;;;;;;;21.67;18.88;;;18.50;79.50;;;;;;5028317;28;20112;-75
2021/07/03 03:52:40;;;;;;;22.88;19.38;;;18.60;79.40;;;;;;5028840;28;20109;-74
2021/07/03 03:55:07;;;;;;;21.20;17.83;;;18.60;79.30;;;;;;5033316;28;20064;-75
2021/07/03 03:57:33;;;;;;;23.00;18.40;;;18.60;78.90;;;;;;5028995;28;20377;-75
2021/07/03 03:59:59;;;;;;;20.55;17.55;;;18.60;78.80;;;;;;5028205;28;20473;-75
2021/07/03 04:02:26;;;;;;;24.00;18.67;;;18.60;78.60;;;;;;5029016;28;20041;-74
2021/07/03 04:04:52;;;;;;;20.40;17.45;;;18.60;78.60;;;;;;5047314;28;20035;-75
2021/07/03 04:07:19;;;;;;;21.92;17.55;;;18.60;78.60;;;;;;5047877;28;20056;-75
2021/07/03 04:09:46;;;;;;;21.48;17.17;;;18.60;78.60;;;;;;5049902;28;20029;-74
2021/07/03 04:12:12;;;;;;;22.13;18.38;;;18.60;78.70;;;;;;5031101;28;20108;-74
2021/07/03 04:14:38;;;;;;;20.58;17.45;;;18.60;78.50;;;;;;5008911;28;20036;-76
2021/07/03 04:17:04;;;;;;;21.25;17.90;;;18.60;78.60;;;;;;5026308;28;20400;-74
2021/07/03 04:19:30;;;;;;;22.00;16.88;;;18.60;78.60;;;;;;5025844;28;20042;-74
2021/07/03 04:21:56;;;;;;;23.58;18.42;;;18.60;78.40;;;;;;5010250;28;20033;-75
2021/07/03 04:24:21;;;;;;;20.45;17.55;;;18.60;78.40;;;;;;5035288;28;20342;-74
2021/07/03 04:26:47;;;;;;;19.98;16.80;;;18.60;78.50;;;;;;5050181;28;20045;-74
2021/07/03 04:29:13;;;;;;;20.88;15.98;;;18.60;78.50;;;;;;5048955;28;20033;-75
2021/07/03 04:31:38;;;;;;;22.20;15.93;;;18.60;78.50;;;;;;5031605;28;20044;-74
2021/07/03 04:34:04;;;;;;;19.33;15.88;;;18.80;78.10;;;;;;5030563;28;20030;-74
2021/07/03 04:36:30;;;;;;;21.02;15.88;;;18.90;78.00;;;;;;5034118;28;20042;-75
2021/07/03 04:38:56;;;;;;;20.80;14.88;;;18.90;77.80;;;;;;5032155;28;20029;-78
2021/07/03 04:41:21;;;;;;;16.83;14.73;;;19.00;77.50;;;;;;5031675;28;20029;-75
2021/07/03 04:43:47;;;;;;;16.75;14.13;;;19.00;77.30;;;;;;5033358;28;20037;-74
2021/07/03 04:46:13;;;;;;;21.00;16.38;;;19.00;77.20;;;;;;5023471;28;20091;-75
2021/07/03 04:48:39;;;;;;;17.77;15.05;;;19.10;77.20;;;;;;5031706;28;20141;-75
2021/07/03 04:51:05;;;;;;;17.42;13.70;;;19.10;77.10;;;;;;5014097;28;20392;-74
2021/07/03 04:53:30;;;;;;;21.08;15.85;;;19.10;77.20;;;;;;5031416;28;20041;-75
2021/07/03 04:55:56;;;;;;;19.13;14.65;;;19.10;77.00;;;;;;5024770;28;20135;-76
2021/07/03 04:58:22;;;;;;;17.85;14.93;;;19.10;76.90;;;;;;5012070;28;20061;-74
2021/07/03 05:00:48;;;;;;;20.35;14.52;;;19.20;76.90;;;;;;5019497;28;20475;-75
2021/07/03 05:03:13;;;;;;;16.38;12.65;;;19.20;77.00;;;;;;5036814;28;20068;-74
2021/07/03 05:05:39;;;;;;;17.52;14.25;;;19.20;77.00;;;;;;5036907;28;20155;-74
2021/07/03 05:08:05;;;;;;;18.27;14.75;;;19.20;76.90;;;;;;5030619;28;20045;-75
2021/07/03 05:10:31;;;;;;;16.55;14.00;;;19.30;76.80;;;;;;5031916;28;20044;-75
2021/07/03 05:12:57;;;;;;;18.58;13.35;;;19.30;76.70;;;;;;5026984;28;20523;-75
2021/07/03 05:15:23;;;;;;;17.35;14.07;;;19.30;77.00;;;;;;5013822;28;20042;-75
2021/07/03 05:17:48;;;;;;;17.15;13.27;;;19.30;76.80;;;;;;5030979;28;20397;-75
2021/07/03 05:20:17;;;;;;;16.30;13.52;;;19.30;76.60;;;;;;5020847;28;20506;-74
2021/07/03 05:22:42;;;;;;;17.52;12.25;;;19.50;76.70;;;;;;5018552;28;20033;-74
2021/07/03 05:25:09;;;;;;;15.95;12.68;;;19.60;76.60;;;;;;5051943;28;20061;-74
2021/07/03 05:27:34;;;;;;;20.85;13.15;;;19.60;76.20;;;;;;5033658;28;20432;-76
2021/07/03 05:30:00;;;;;;;16.77;13.55;;;19.70;75.90;;;;;;5017129;28;20533;-74
2021/07/03 05:32:26;;;;;;;17.23;13.55;;;19.80;75.70;;;;;;5030908;28;20033;-74
2021/07/03 05:34:51;;;;;;;19.83;13.68;;;19.80;75.70;;;;;;5031200;28;20465;-75
2021/07/03 05:37:17;;;;;;;16.70;12.95;;;19.90;75.60;;;;;;5030935;28;20120;-75
2021/07/03 05:39:43;;;;;;;14.15;12.35;;;20.00;75.30;;;;;;5031763;28;20048;-72
2021/07/03 05:42:08;;;;;;;15.00;11.95;;;20.10;75.10;;;;;;5029216;28;21365;-73
2021/07/03 05:44:34;;;;;;;13.70;12.18;;;20.10;75.20;;;;;;5011419;28;20061;-74
2021/07/03 05:47:00;;;;;;;18.15;14.20;;;20.10;75.10;;;;;;5028195;28;20450;-73
2021/07/03 05:49:26;;;;;;;17.77;14.05;;;20.30;75.00;;;;;;5028809;28;20477;-72
2021/07/03 05:51:51;;;;;;;17.10;14.20;;;20.20;75.00;;;;;;5012394;28;20171;-73
2021/07/03 05:54:17;;;;;;;17.13;13.63;;;20.30;75.40;;;;;;5028336;28;20037;-72
2021/07/03 05:56:43;;;;;;;17.50;13.85;;;20.20;75.60;;;;;;5030963;28;20477;-72
2021/07/03 05:59:09;;;;;;;16.23;13.80;;;20.30;75.60;;;;;;5030160;28;20030;-72
2021/07/03 06:01:34;;;;;;;17.58;13.38;;;20.30;75.70;;;;;;5027872;28;20380;-71
2021/07/03 06:04:00;;;;;;;16.80;14.75;;;20.40;75.80;;;;;;5035375;28;20021;-75
2021/07/03 06:06:26;;;;;;;17.00;13.85;;;20.40;75.50;;;;;;5030226;28;20053;-72
2021/07/03 06:08:52;;;;;;;17.15;14.07;;;20.30;75.70;;;;;;5012467;28;20058;-74
2021/07/03 06:11:17;;;;;;;17.67;14.73;;;20.30;75.70;;;;;;5011210;28;20045;-72
2021/07/03 06:13:43;;;;;;;20.17;14.77;;;20.50;75.40;;;;;;5024649;28;20037;-72
2021/07/03 06:16:09;;;;;;;20.65;15.65;;;20.40;75.10;;;;;;5029367;28;20033;-73
2021/07/03 06:18:34;;;;;;;15.50;13.07;;;20.60;74.40;;;;;;5030616;28;20049;-72
2021/07/03 06:21:01;;;;;;;18.33;14.10;;;20.60;74.30;;;;;;5015824;28;20046;-72
2021/07/03 06:23:27;;;;;;;20.52;13.98;;;20.70;73.80;;;;;;5021504;28;20709;-72
2021/07/03 06:25:54;;;;;;;19.40;14.75;;;20.90;72.70;;;;;;5010497;28;20034;-72
2021/07/03 06:28:20;;;;;;;17.05;13.40;;;21.00;72.10;;;;;;5010040;28;20429;-72
2021/07/03 06:30:46;;;;;;;20.27;14.55;;;21.10;72.00;;;;;;5019241;28;20022;-73
2021/07/03 06:33:12;;;;;;;18.55;14.73;;;21.30;71.70;;;;;;5009877;28;20377;-72
2021/07/03 06:35:38;;;;;;;17.98;14.13;;;21.50;71.20;;;;;;5010156;28;20488;-73
2021/07/03 06:38:04;;;;;;;17.10;13.20;;;21.60;70.50;;;;;;5009672;28;20036;-73
2021/07/03 06:40:31;;;;;;;17.83;13.50;;;21.70;70.40;;;;;;5011133;28;20036;-73
2021/07/03 06:42:57;;;;;;;14.13;12.02;;;21.80;70.00;;;;;;5030227;28;20037;-74
2021/07/03 06:45:23;;;;;;;16.27;11.90;;;22.00;69.90;;;;;;5029723;28;20110;-72
2021/07/03 06:47:49;;;;;;;16.85;12.57;;;22.00;69.20;;;;;;5031342;28;20486;-72
2021/07/03 06:50:15;;;;;;;17.05;12.75;;;22.00;68.60;;;;;;5019171;28;20034;-71
2021/07/03 06:52:40;;;;;;;14.95;11.70;;;22.10;69.50;;;;;;5011676;28;20472;-72
2021/07/03 06:55:07;;;;;;;14.88;11.68;;;22.30;68.30;;;;;;5035918;28;20044;-74
2021/07/03 06:57:32;;;;;;;15.32;11.13;;;22.20;68.60;;;;;;5020089;28;20026;-77
2021/07/03 06:59:58;;;;;;;16.10;11.38;;;22.30;68.30;;;;;;5018436;28;20041;-72
2021/07/03 07:02:24;;;;;;;13.68;10.85;;;22.30;68.30;;;;;;5028341;28;20037;-72
2021/07/03 07:04:49;;;;;;;16.02;10.70;;;22.40;68.40;;;;;;5048001;28;20025;-74
2021/07/03 07:07:15;;;;;;;13.00;11.02;;;22.60;68.00;;;;;;5045394;28;20053;-72
2021/07/03 07:09:41;;;;;;;14.98;9.88;;;22.80;67.30;;;;;;5009975;28;20469;-75
2021/07/03 07:12:07;;;;;;;14.98;9.48;;;23.20;66.60;;;;;;5008998;28;20049;-72
2021/07/03 07:14:33;;;;;;;12.32;9.55;;;23.40;64.30;;;;;;5011150;28;20030;-74
2021/07/03 07:16:59;;;;;;;13.85;9.38;;;23.60;64.00;;;;;;5026572;28;20145;-72
2021/07/03 07:19:24;;;;;;;12.32;9.02;;;23.80;63.40;;;;;;5019622;28;20069;-72
2021/07/03 07:21:50;;;;;;;13.45;9.27;;;23.80;62.70;;;;;;5009307;28;20481;-73
2021/07/03 07:24:16;;;;;;;12.45;9.43;;;23.80;62.50;;;;;;5041243;28;20029;-72
2021/07/03 07:26:42;;;;;;;11.52;8.93;;;23.90;61.90;;;;;;5050392;28;20029;-72
2021/07/03 07:29:08;;;;;;;11.05;8.18;;;23.80;62.00;;;;;;5047688;28;20044;-73
2021/07/03 07:31:34;;;;;;;13.75;8.73;;;23.70;61.80;;;;;;5028859;28;20037;-72
2021/07/03 07:33:59;;;;;;;13.80;9.10;;;23.80;61.60;;;;;;5029429;28;20026;-72
2021/07/03 07:36:25;;;;;;;12.98;8.40;;;23.80;61.10;;;;;;5020130;28;20038;-72
2021/07/03 07:38:51;;;;;;;13.82;9.50;;;23.80;62.20;;;;;;5010775;28;20044;-72
2021/07/03 07:41:17;;;;;;;13.00;8.52;;;23.90;61.10;;;;;;5009950;28;20121;-71
2021/07/03 07:43:43;;;;;;;10.77;8.20;;;24.00;60.90;;;;;;5009619;28;20435;-71
2021/07/03 07:46:09;;;;;;;12.82;9.02;;;24.10;61.00;;;;;;5018456;28;20393;-72
2021/07/03 07:48:35;;;;;;;10.30;8.30;;;24.10;60.20;;;;;;5028771;28;20534;-72
2021/07/03 07:51:01;;;;;;;13.10;9.43;;;23.90;61.00;;;;;;5014809;28;20038;-72
2021/07/03 07:53:28;;;;;;;11.57;8.68;;;24.10;61.70;;;;;;5033826;28;20083;-72
2021/07/03 07:55:55;;;;;;;12.02;9.25;;;24.40;61.40;;;;;;5026145;28;20539;-73
2021/07/03 07:58:21;;;;;;;11.63;8.50;;;24.60;60.90;;;;;;5009842;28;20531;-76
2021/07/03 08:00:46;;;;;;;12.40;9.15;;;24.60;59.80;;;;;;5014714;28;20033;-72
2021/07/03 08:03:12;;;;;;;11.82;8.20;;;24.60;60.10;;;;;;5028652;28;20041;-71
2021/07/03 08:05:38;;;;;;;10.93;7.95;;;24.80;59.10;;;;;;5048654;28;20105;-72
2021/07/03 08:08:06;;;;;;;11.77;7.97;;;25.10;58.20;;;;;;5049820;28;20044;-73
2021/07/03 08:10:33;;;;;;;10.60;7.95;;;25.10;58.20;;;;;;5054170;28;20029;-72
2021/07/03 08:12:59;;;;;;;11.52;8.65;;;25.00;59.40;;;;;;5053736;28;20107;-72
2021/07/03 08:15:25;;;;;;;10.88;7.68;;;24.90;58.90;;;;;;5027587;28;20113;-72
2021/07/03 08:17:51;;;;;;;11.32;7.90;;;24.90;59.20;;;;;;5034022;28;20041;-72
2021/07/03 08:20:20;;;;;;;12.25;8.50;;;25.00;59.10;;;;;;5022897;28;20050;-71
2021/07/03 08:22:48;;;;;;;12.30;8.13;;;24.90;59.40;;;;;;5018559;28;20045;-72
2021/07/03 08:25:15;;;;;;;10.38;8.25;;;25.00;59.00;;;;;;5033402;28;20113;-71
2021/07/03 08:27:41;;;;;;;13.13;8.38;;;24.80;58.90;;;;;;5012481;28;20811;-72
2021/07/03 08:30:07;;;;;;;10.65;7.90;;;24.60;59.70;;;;;;5012785;28;20496;-72
2021/07/03 08:32:33;;;;;;;14.05;7.93;;;24.50;59.80;;;;;;5033664;28;20056;-73
2021/07/03 08:34:59;;;;;;;10.70;7.47;;;24.40;60.40;;;;;;5032717;28;20052;-73
2021/07/03 08:37:25;;;;;;;11.60;8.77;;;24.30;60.60;;;;;;5019942;28;20393;-72
2021/07/03 08:39:51;;;;;;;11.48;8.18;;;24.20;61.70;;;;;;5013946;28;20040;-72
2021/07/03 08:42:17;;;;;;;11.25;8.68;;;24.10;61.90;;;;;;5011633;28;20386;-73
2021/07/03 08:44:47;;;;;;;11.75;8.57;;;24.20;62.10;;;;;;5012602;28;20388;-73
2021/07/03 08:47:13;;;;;;;10.35;7.93;;;24.60;61.40;;;;;;5020999;28;20053;-72
2021/07/03 08:49:40;;;;;;;10.68;8.50;;;24.70;61.00;;;;;;5021240;28;20022;-72
2021/07/03 08:52:06;;;;;;;11.50;8.57;;;25.00;61.40;;;;;;5012950;28;20030;-73
2021/07/03 08:54:32;;;;;;;11.10;8.57;;;25.10;60.70;;;;;;5032004;28;20029;-72
2021/07/03 08:57:00;;;;;;;13.98;9.30;;;25.20;60.30;;;;;;5033206;28;20033;-73
2021/07/03 08:59:27;;;;;;;13.10;8.75;;;25.40;59.70;;;;;;5030520;28;20057;-73
2021/07/03 09:01:59;;;;;;;11.93;8.90;;;25.40;59.00;;;;;;5032945;28;20407;-72
2021/07/03 09:04:38;;;;;;;12.02;8.95;;;25.60;59.90;;;;;;5046193;28;20025;-74
2021/07/03 09:07:19;;;;;;;10.15;7.93;;;25.80;57.90;;;;;;5042602;28;20070;-72
2021/07/03 09:09:55;;;;;;;11.98;8.07;;;26.10;58.20;;;;;;5018370;28;20057;-72
2021/07/03 09:12:33;;;;;;;10.45;8.55;;;26.10;58.30;;;;;;5012466;28;20068;-74
2021/07/03 09:15:15;;;;;;;10.85;8.38;;;26.10;57.50;;;;;;5026773;28;20064;-73
2021/07/03 09:17:51;;;;;;;10.70;8.70;;;26.00;58.10;;;;;;5012952;28;20115;-73
2021/07/03 09:20:38;;;;;;;10.55;8.68;;;26.10;58.50;;;;;;5021366;28;20485;-73
2021/07/03 09:23:12;;;;;;;10.52;8.27;;;26.10;58.20;;;;;;5034404;28;20065;-72
2021/07/03 09:25:49;;;;;;;10.27;8.02;;;26.20;58.10;;;;;;5011988;28;20052;-72
2021/07/03 09:28:20;;;;;;;12.18;8.95;;;26.40;57.70;;;;;;5010697;28;20103;-73
2021/07/03 09:30:49;;;;;;;11.82;8.45;;;26.60;57.30;;;;;;5016791;28;20507;-72
2021/07/03 09:33:26;;;;;;;11.52;9.13;;;26.90;56.30;;;;;;5030556;28;20033;-74
2021/07/03 09:35:56;;;;;;;12.27;9.10;;;27.00;56.80;;;;;;5031505;28;20491;-76
2021/07/03 09:38:28;;;;;;;11.60;8.10;;;27.10;55.20;;;;;;5011899;28;20508;-76
2021/07/03 09:41:14;;;;;;;10.50;8.70;;;27.10;56.20;;;;;;5011666;28;20022;-73
2021/07/03 09:43:54;;;;;;;10.50;8.57;;;27.20;55.60;;;;;;5012421;28;20045;-72
2021/07/03 09:46:33;;;;;;;11.23;8.32;;;27.10;55.50;;;;;;5022728;28;20099;-73
2021/07/03 09:49:14;;;;;;;11.90;8.77;;;27.40;55.10;;;;;;5032051;28;20041;-77
2021/07/03 09:51:52;;;;;;;10.98;8.50;;;27.50;55.50;;;;;;5011184;28;20118;-73
2021/07/03 09:54:20;;;;;;;12.18;9.10;;;27.30;55.70;;;;;;5028146;28;20350;-73
2021/07/03 09:56:46;;;;;;;12.23;8.82;;;27.30;56.50;;;;;;5031095;28;20029;-73
2021/07/03 09:59:12;;;;;;;11.95;8.63;;;27.40;55.20;;;;;;5030138;28;20044;-74
2021/07/03 10:01:40;;;;;;;10.98;9.13;;;27.50;55.50;;;;;;5030952;28;20022;-72
2021/07/03 10:04:07;;;;;;;10.80;8.32;;;27.30;54.60;;;;;;5026976;28;20030;-74
2021/07/03 10:06:49;;;;;;;12.45;9.45;;;27.50;54.90;;;;;;5013209;28;20548;-72
2021/07/03 10:09:41;;;;;;;12.77;8.20;;;27.40;56.20;;;;;;5030029;28;20042;-73
2021/07/03 10:12:10;;;;;;;11.88;8.52;;;27.40;55.00;;;;;;5031694;28;20536;-73
2021/07/03 10:14:44;;;;;;;13.20;9.38;;;27.30;54.60;;;;;;5025945;28;20034;-73
2021/07/03 10:17:10;;;;;;;13.20;9.32;;;27.20;55.60;;;;;;5028897;28;20454;-74
2021/07/03 10:19:40;;;;;;;11.77;9.40;;;27.40;55.20;;;;;;5025515;28;20050;-73
2021/07/03 10:22:29;;;;;;;12.75;10.18;;;27.40;55.00;;;;;;5010823;28;20084;-73
2021/07/03 10:24:58;;;;;;;13.48;9.77;;;27.10;55.40;;;;;;5020983;28;20149;-72
2021/07/03 10:27:25;;;;;;;10.85;8.90;;;27.40;55.60;;;;;;5028979;28;20037;-74
2021/07/03 10:29:59;;;;;;;12.85;9.40;;;27.30;55.90;;;;;;5030357;28;20032;-74
2021/07/03 10:32:34;;;;;;;11.32;10.10;;;27.10;56.20;;;;;;5019890;28;20041;-73
2021/07/03 10:35:10;;;;;;;12.25;10.75;;;26.80;57.50;;;;;;5015811;28;20397;-73
2021/07/03 10:37:36;;;;;;;13.88;9.30;;;26.40;57.80;;;;;;5010823;28;20034;-73
2021/07/03 10:40:13;;;;;;;12.95;9.48;;;26.10;59.30;;;;;;5011423;28;20034;-74
2021/07/03 10:42:39;;;;;;;11.00;8.90;;;26.10;59.70;;;;;;5015763;28;20053;-73
2021/07/03 10:45:25;;;;;;;12.35;9.40;;;26.10;59.50;;;;;;5030776;28;20425;-73
2021/07/03 10:47:52;;;;;;;10.25;8.02;;;26.30;59.20;;;;;;5028974;28;20043;-72
2021/07/03 10:50:24;;;;;;;11.25;9.48;;;26.40;57.50;;;;;;5018962;28;20053;-73
2021/07/03 10:52:52;;;;;;;10.95;8.70;;;26.60;56.30;;;;;;5012017;28;20246;-73
2021/07/03 10:55:29;;;;;;;13.68;8.98;;;26.80;56.70;;;;;;5033030;28;20037;-74
2021/07/03 10:57:54;;;;;;;10.93;8.07;;;26.90;55.60;;;;;;5027707;28;20033;-73
2021/07/03 11:00:24;;;;;;;13.60;10.60;;;27.00;57.00;;;;;;5029352;28;20048;-72
2021/07/03 11:02:51;;;;;;;13.48;10.82;;;26.70;57.70;;;;;;5031616;28;20029;-75
2021/07/03 11:05:17;;;;;;;13.38;10.40;;;26.10;59.40;;;;;;5048808;28;20471;-73
2021/07/03 11:07:45;;;;;;;12.52;10.40;;;25.40;62.20;;;;;;5032453;28;20496;-73
2021/07/03 11:10:12;;;;;;;12.38;10.45;;;25.10;63.30;;;;;;5027995;28;20132;-73
2021/07/03 11:12:53;;;;;;;12.35;10.05;;;25.10;62.40;;;;;;5030972;28;20029;-73
2021/07/03 11:15:24;;;;;;;13.40;9.85;;;25.30;62.10;;;;;;5027110;28;20057;-72
2021/07/03 11:17:50;;;;;;;13.05;10.02;;;25.40;61.70;;;;;;5030887;28;20084;-75
2021/07/03 11:20:27;;;;;;;12.50;10.45;;;25.70;61.30;;;;;;5018181;28;20389;-73
2021/07/03 11:22:53;;;;;;;14.02;11.20;;;26.00;60.70;;;;;;5017469;28;20424;-72
2021/07/03 11:25:28;;;;;;;12.77;10.63;;;26.30;59.70;;;;;;5051069;28;20059;-73
2021/07/03 11:28:04;;;;;;;12.93;10.38;;;26.30;59.60;;;;;;5041455;28;20030;-73
2021/07/03 11:30:31;;;;;;;13.90;10.32;;;26.50;59.50;;;;;;5012302;28;20048;-72
2021/07/03 11:32:57;;;;;;;12.77;10.65;;;26.50;59.20;;;;;;5028321;28;20052;-73
2021/07/03 11:35:25;;;;;;;11.90;10.30;;;26.50;59.40;;;;;;5028043;28;20030;-73
2021/07/03 11:37:51;;;;;;;12.77;10.35;;;26.60;59.00;;;;;;5030320;28;20033;-73
2021/07/03 11:40:25;;;;;;;12.48;10.82;;;26.70;58.50;;;;;;5028232;28;20147;-73
2021/07/03 11:42:53;;;;;;;12.68;11.35;;;26.50;59.50;;;;;;5024722;28;20129;-73
2021/07/03 11:45:25;;;;;;;13.32;11.80;;;25.90;60.70;;;;;;5010036;28;20037;-73
2021/07/03 11:47:53;;;;;;;14.88;12.93;;;25.80;61.70;;;;;;5029071;28;20037;-73
2021/07/03 11:50:25;;;;;;;13.10;10.57;;;25.60;62.30;;;;;;5017404;28;20109;-73
2021/07/03 11:52:53;;;;;;;13.20;11.45;;;25.50;63.10;;;;;;5012779;28;20157;-73
2021/07/03 11:55:26;;;;;;;15.20;11.20;;;25.60;62.80;;;;;;5027190;28;20033;-73
2021/07/03 11:57:53;;;;;;;14.57;12.70;;;25.40;63.70;;;;;;5030454;28;20116;-73
2021/07/03 12:00:29;;;;;;;13.40;12.00;;;25.10;63.90;;;;;;5029313;28;20038;-76
2021/07/03 12:02:56;;;;;;;16.02;12.55;;;25.00;65.20;;;;;;5032784;28;20038;-74
2021/07/03 12:05:29;;;;;;;13.30;11.73;;;24.80;66.10;;;;;;5027884;28;20033;-74
2021/07/03 12:08:00;;;;;;;16.15;12.82;;;24.80;66.10;;;;;;5008923;28;20133;-74
2021/07/03 12:10:41;;;;;;;14.02;12.43;;;24.80;66.70;;;;;;5009906;28;20104;-75
2021/07/03 12:13:29;;;;;;;21.77;13.20;;;24.80;66.20;;;;;;5008518;28;20038;-75
2021/07/03 12:15:54;;;;;;;13.27;11.88;;;24.80;66.60;;;;;;5015926;28;20076;-73
2021/07/03 12:18:27;;;;;;;14.95;12.38;;;25.10;66.00;;;;;;5029474;28;20077;-74
2021/07/03 12:21:25;;;;;;;16.40;12.43;;;25.50;67.70;;;;;;5014537;28;20034;-73
2021/07/03 12:23:57;;;;;;;14.23;12.45;;;25.80;65.80;;;;;;5029215;28;20032;-75
2021/07/03 12:26:37;;;;;;;14.98;11.80;;;26.00;64.30;;;;;;5031853;28;20037;-74
2021/07/03 12:29:09;;;;;;;14.05;10.85;;;26.20;62.80;;;;;;5028111;28;20026;-73
2021/07/03 12:31:44;;;;;;;11.43;10.15;;;26.50;61.30;;;;;;5029300;28;20033;-72
2021/07/03 12:34:12;;;;;;;12.50;9.25;;;26.80;59.90;;;;;;5029412;28;20037;-74